sensor_id;sensor_type;location;lat;lon;timestamp;P1;durP1;ratioP1;P2;durP2;ratioP2
20080;SDS011;10200;49.232;9.222;2023-04-23T00:01:03;7.63;;;4.33;;
20080;SDS011;10200;49.232;9.222;2023-04-23T00:03:30;5.87;;;3.97;;
20080;SDS011;10200;49.232;9.222;2023-04-23T00:05:58;6.37;;;3.60;;
20080;SDS011;10200;49.232;9.222;2023-04-23T00:08:27;4.73;;;3.60;;
20080;SDS011;10200;49.232;9.222;2023-04-23T00:10:54;3.73;;;2.87;;
20080;SDS011;10200;49.232;9.222;2023-04-23T00:13:20;6.67;;;3.30;;
20080;SDS011;10200;49.232;9.222;2023-04-23T00:15:46;3.90;;;3.50;;
20080;SDS011;10200;49.232;9.222;2023-04-23T00:18:13;4.50;;;3.43;;
20080;SDS011;10200;49.232;9.222;2023-04-23T00:20:41;4.77;;;2.77;;
20080;SDS011;10200;49.232;9.222;2023-04-23T00:23:07;3.83;;;2.60;;
20080;SDS011;10200;49.232;9.222;2023-04-23T00:25:34;3.50;;;3.20;;
20080;SDS011;10200;49.232;9.222;2023-04-23T00:28:00;4.60;;;3.10;;
20080;SDS011;10200;49.232;9.222;2023-04-23T00:30:27;4.20;;;2.83;;
20080;SDS011;10200;49.232;9.222;2023-04-23T00:32:52;4.23;;;2.90;;
20080;SDS011;10200;49.232;9.222;2023-04-23T00:35:18;4.87;;;2.83;;
20080;SDS011;10200;49.232;9.222;2023-04-23T00:37:44;5.23;;;3.20;;
20080;SDS011;10200;49.232;9.222;2023-04-23T00:40:11;4.83;;;2.67;;
20080;SDS011;10200;49.232;9.222;2023-04-23T00:42:37;3.23;;;2.93;;
20080;SDS011;10200;49.232;9.222;2023-04-23T00:45:07;3.30;;;3.00;;
20080;SDS011;10200;49.232;9.222;2023-04-23T00:47:33;4.50;;;2.80;;
20080;SDS011;10200;49.232;9.222;2023-04-23T00:50:00;4.60;;;3.30;;
20080;SDS011;10200;49.232;9.222;2023-04-23T00:52:27;4.90;;;3.30;;
20080;SDS011;10200;49.232;9.222;2023-04-23T00:54:53;5.73;;;3.00;;
20080;SDS011;10200;49.232;9.222;2023-04-23T00:57:20;6.13;;;3.23;;
20080;SDS011;10200;49.232;9.222;2023-04-23T00:59:46;4.80;;;3.20;;
20080;SDS011;10200;49.232;9.222;2023-04-23T01:02:13;6.27;;;3.77;;
20080;SDS011;10200;49.232;9.222;2023-04-23T01:04:39;5.00;;;3.20;;
20080;SDS011;10200;49.232;9.222;2023-04-23T01:07:07;3.60;;;2.90;;
20080;SDS011;10200;49.232;9.222;2023-04-23T01:09:34;5.93;;;3.70;;
20080;SDS011;10200;49.232;9.222;2023-04-23T01:11:59;4.80;;;3.30;;
20080;SDS011;10200;49.232;9.222;2023-04-23T01:14:26;6.63;;;3.70;;
20080;SDS011;10200;49.232;9.222;2023-04-23T01:16:52;6.47;;;4.20;;
20080;SDS011;10200;49.232;9.222;2023-04-23T01:19:18;5.83;;;3.97;;
20080;SDS011;10200;49.232;9.222;2023-04-23T01:21:44;5.37;;;4.20;;
20080;SDS011;10200;49.232;9.222;2023-04-23T01:24:14;4.57;;;3.90;;
20080;SDS011;10200;49.232;9.222;2023-04-23T01:26:39;6.70;;;4.47;;
20080;SDS011;10200;49.232;9.222;2023-04-23T01:29:05;6.33;;;4.37;;
20080;SDS011;10200;49.232;9.222;2023-04-23T01:31:31;6.43;;;4.20;;
20080;SDS011;10200;49.232;9.222;2023-04-23T01:33:57;6.70;;;4.20;;
20080;SDS011;10200;49.232;9.222;2023-04-23T01:36:24;8.93;;;4.30;;
20080;SDS011;10200;49.232;9.222;2023-04-23T01:38:52;5.47;;;4.00;;
20080;SDS011;10200;49.232;9.222;2023-04-23T01:41:19;5.83;;;3.90;;
20080;SDS011;10200;49.232;9.222;2023-04-23T01:43:45;4.70;;;3.53;;
20080;SDS011;10200;49.232;9.222;2023-04-23T01:46:11;6.40;;;4.50;;
20080;SDS011;10200;49.232;9.222;2023-04-23T01:48:37;5.63;;;3.60;;
20080;SDS011;10200;49.232;9.222;2023-04-23T01:51:04;6.23;;;4.00;;
20080;SDS011;10200;49.232;9.222;2023-04-23T01:53:30;7.80;;;4.53;;
20080;SDS011;10200;49.232;9.222;2023-04-23T01:55:56;4.30;;;3.67;;
20080;SDS011;10200;49.232;9.222;2023-04-23T01:58:22;5.17;;;4.13;;
20080;SDS011;10200;49.232;9.222;2023-04-23T02:00:48;5.80;;;4.20;;
20080;SDS011;10200;49.232;9.222;2023-04-23T02:03:17;5.30;;;3.83;;
20080;SDS011;10200;49.232;9.222;2023-04-23T02:05:43;5.23;;;3.83;;
20080;SDS011;10200;49.232;9.222;2023-04-23T02:08:10;7.43;;;4.50;;
20080;SDS011;10200;49.232;9.222;2023-04-23T02:10:36;6.70;;;5.13;;
20080;SDS011;10200;49.232;9.222;2023-04-23T02:13:02;6.23;;;4.50;;
20080;SDS011;10200;49.232;9.222;2023-04-23T02:15:31;6.70;;;4.73;;
20080;SDS011;10200;49.232;9.222;2023-04-23T02:17:58;5.60;;;4.40;;
20080;SDS011;10200;49.232;9.222;2023-04-23T02:20:23;7.37;;;5.00;;
20080;SDS011;10200;49.232;9.222;2023-04-23T02:22:49;5.77;;;4.80;;
20080;SDS011;10200;49.232;9.222;2023-04-23T02:25:16;6.57;;;4.87;;
20080;SDS011;10200;49.232;9.222;2023-04-23T02:27:42;6.10;;;4.33;;
20080;SDS011;10200;49.232;9.222;2023-04-23T02:30:09;7.30;;;4.83;;
20080;SDS011;10200;49.232;9.222;2023-04-23T02:32:37;6.87;;;5.00;;
20080;SDS011;10200;49.232;9.222;2023-04-23T02:35:03;8.27;;;5.60;;
20080;SDS011;10200;49.232;9.222;2023-04-23T02:37:33;6.67;;;5.47;;
20080;SDS011;10200;49.232;9.222;2023-04-23T02:39:59;9.83;;;6.13;;
20080;SDS011;10200;49.232;9.222;2023-04-23T02:42:25;6.00;;;5.30;;
20080;SDS011;10200;49.232;9.222;2023-04-23T02:44:54;8.80;;;5.90;;
20080;SDS011;10200;49.232;9.222;2023-04-23T02:47:20;7.97;;;5.30;;
20080;SDS011;10200;49.232;9.222;2023-04-23T02:49:46;6.47;;;5.50;;
20080;SDS011;10200;49.232;9.222;2023-04-23T02:52:11;7.00;;;5.73;;
20080;SDS011;10200;49.232;9.222;2023-04-23T02:54:37;7.70;;;6.03;;
20080;SDS011;10200;49.232;9.222;2023-04-23T02:57:04;9.07;;;5.40;;
20080;SDS011;10200;49.232;9.222;2023-04-23T02:59:30;8.63;;;6.70;;
20080;SDS011;10200;49.232;9.222;2023-04-23T03:01:55;8.93;;;6.20;;
20080;SDS011;10200;49.232;9.222;2023-04-23T03:04:21;9.37;;;5.67;;
20080;SDS011;10200;49.232;9.222;2023-04-23T03:06:47;6.80;;;5.63;;
20080;SDS011;10200;49.232;9.222;2023-04-23T03:09:13;9.63;;;5.73;;
20080;SDS011;10200;49.232;9.222;2023-04-23T03:11:42;10.67;;;6.23;;
20080;SDS011;10200;49.232;9.222;2023-04-23T03:14:08;7.73;;;5.60;;
20080;SDS011;10200;49.232;9.222;2023-04-23T03:16:33;7.53;;;5.43;;
20080;SDS011;10200;49.232;9.222;2023-04-23T03:18:59;7.53;;;5.23;;
20080;SDS011;10200;49.232;9.222;2023-04-23T03:21:25;6.10;;;4.70;;
20080;SDS011;10200;49.232;9.222;2023-04-23T03:23:51;8.07;;;5.20;;
20080;SDS011;10200;49.232;9.222;2023-04-23T03:26:17;7.67;;;4.80;;
20080;SDS011;10200;49.232;9.222;2023-04-23T03:28:43;6.73;;;4.83;;
20080;SDS011;10200;49.232;9.222;2023-04-23T03:31:10;8.07;;;5.43;;
20080;SDS011;10200;49.232;9.222;2023-04-23T03:33:35;7.63;;;4.67;;
20080;SDS011;10200;49.232;9.222;2023-04-23T03:36:01;5.27;;;4.50;;
20080;SDS011;10200;49.232;9.222;2023-04-23T03:38:30;6.87;;;4.60;;
20080;SDS011;10200;49.232;9.222;2023-04-23T03:40:56;5.63;;;4.43;;
20080;SDS011;10200;49.232;9.222;2023-04-23T03:43:21;5.87;;;4.57;;
20080;SDS011;10200;49.232;9.222;2023-04-23T03:45:47;6.77;;;4.40;;
20080;SDS011;10200;49.232;9.222;2023-04-23T03:48:16;6.43;;;4.23;;
20080;SDS011;10200;49.232;9.222;2023-04-23T03:50:41;6.13;;;4.43;;
20080;SDS011;10200;49.232;9.222;2023-04-23T03:53:07;5.77;;;3.60;;
20080;SDS011;10200;49.232;9.222;2023-04-23T03:55:34;4.33;;;3.80;;
20080;SDS011;10200;49.232;9.222;2023-04-23T03:58:01;9.17;;;4.60;;
20080;SDS011;10200;49.232;9.222;2023-04-23T04:00:27;6.27;;;4.30;;
20080;SDS011;10200;49.232;9.222;2023-04-23T04:02:53;5.27;;;4.07;;
20080;SDS011;10200;49.232;9.222;2023-04-23T04:05:19;4.53;;;3.03;;
20080;SDS011;10200;49.232;9.222;2023-04-23T04:07:45;4.63;;;4.13;;
20080;SDS011;10200;49.232;9.222;2023-04-23T04:10:11;5.43;;;4.00;;
20080;SDS011;10200;49.232;9.222;2023-04-23T04:12:37;5.90;;;3.90;;
20080;SDS011;10200;49.232;9.222;2023-04-23T04:15:03;3.93;;;3.30;;
20080;SDS011;10200;49.232;9.222;2023-04-23T04:17:29;6.70;;;3.97;;
20080;SDS011;10200;49.232;9.222;2023-04-23T04:19:55;5.20;;;3.77;;
20080;SDS011;10200;49.232;9.222;2023-04-23T04:22:21;4.37;;;3.60;;
20080;SDS011;10200;49.232;9.222;2023-04-23T04:24:47;6.20;;;3.50;;
20080;SDS011;10200;49.232;9.222;2023-04-23T04:27:16;3.90;;;2.90;;
20080;SDS011;10200;49.232;9.222;2023-04-23T04:29:42;7.33;;;3.27;;
20080;SDS011;10200;49.232;9.222;2023-04-23T04:32:08;6.23;;;2.90;;
20080;SDS011;10200;49.232;9.222;2023-04-23T04:34:34;3.80;;;2.50;;
20080;SDS011;10200;49.232;9.222;2023-04-23T04:37:02;3.43;;;2.33;;
20080;SDS011;10200;49.232;9.222;2023-04-23T04:39:28;3.27;;;2.67;;
20080;SDS011;10200;49.232;9.222;2023-04-23T04:41:53;4.53;;;2.40;;
20080;SDS011;10200;49.232;9.222;2023-04-23T04:44:21;2.77;;;2.50;;
20080;SDS011;10200;49.232;9.222;2023-04-23T04:46:47;4.43;;;2.83;;
20080;SDS011;10200;49.232;9.222;2023-04-23T04:49:13;2.77;;;2.17;;
20080;SDS011;10200;49.232;9.222;2023-04-23T04:51:39;2.40;;;2.10;;
20080;SDS011;10200;49.232;9.222;2023-04-23T04:54:05;1.90;;;1.67;;
20080;SDS011;10200;49.232;9.222;2023-04-23T04:56:35;2.20;;;2.00;;
20080;SDS011;10200;49.232;9.222;2023-04-23T04:59:01;2.00;;;1.80;;
20080;SDS011;10200;49.232;9.222;2023-04-23T05:01:28;2.00;;;1.67;;
20080;SDS011;10200;49.232;9.222;2023-04-23T05:03:54;2.20;;;1.60;;
20080;SDS011;10200;49.232;9.222;2023-04-23T05:06:20;2.83;;;1.97;;
20080;SDS011;10200;49.232;9.222;2023-04-23T05:08:46;2.20;;;2.00;;
20080;SDS011;10200;49.232;9.222;2023-04-23T05:11:13;2.20;;;1.90;;
20080;SDS011;10200;49.232;9.222;2023-04-23T05:13:40;2.33;;;1.40;;
20080;SDS011;10200;49.232;9.222;2023-04-23T05:16:06;1.60;;;1.50;;
20080;SDS011;10200;49.232;9.222;2023-04-23T05:18:35;3.03;;;1.80;;
20080;SDS011;10200;49.232;9.222;2023-04-23T05:21:02;1.70;;;1.60;;
20080;SDS011;10200;49.232;9.222;2023-04-23T05:23:28;1.50;;;1.40;;
20080;SDS011;10200;49.232;9.222;2023-04-23T05:25:54;1.60;;;1.50;;
20080;SDS011;10200;49.232;9.222;2023-04-23T05:28:21;1.73;;;1.47;;
20080;SDS011;10200;49.232;9.222;2023-04-23T05:30:46;1.67;;;1.57;;
20080;SDS011;10200;49.232;9.222;2023-04-23T05:33:15;2.10;;;1.83;;
20080;SDS011;10200;49.232;9.222;2023-04-23T05:35:41;4.10;;;2.50;;
20080;SDS011;10200;49.232;9.222;2023-04-23T05:38:07;2.23;;;1.80;;
20080;SDS011;10200;49.232;9.222;2023-04-23T05:40:33;2.37;;;1.90;;
20080;SDS011;10200;49.232;9.222;2023-04-23T05:42:59;1.73;;;1.63;;
20080;SDS011;10200;49.232;9.222;2023-04-23T05:45:25;3.13;;;1.87;;
20080;SDS011;10200;49.232;9.222;2023-04-23T05:47:51;3.47;;;1.80;;
20080;SDS011;10200;49.232;9.222;2023-04-23T05:50:17;4.47;;;2.03;;
20080;SDS011;10200;49.232;9.222;2023-04-23T05:52:46;1.80;;;1.63;;
20080;SDS011;10200;49.232;9.222;2023-04-23T05:55:12;2.13;;;1.93;;
20080;SDS011;10200;49.232;9.222;2023-04-23T05:57:42;2.23;;;1.70;;
20080;SDS011;10200;49.232;9.222;2023-04-23T06:00:11;2.23;;;1.70;;
20080;SDS011;10200;49.232;9.222;2023-04-23T06:02:41;2.50;;;2.20;;
20080;SDS011;10200;49.232;9.222;2023-04-23T06:05:08;2.17;;;1.67;;
20080;SDS011;10200;49.232;9.222;2023-04-23T06:07:34;2.07;;;1.83;;
20080;SDS011;10200;49.232;9.222;2023-04-23T06:10:00;2.40;;;2.10;;
20080;SDS011;10200;49.232;9.222;2023-04-23T06:12:27;2.93;;;2.17;;
20080;SDS011;10200;49.232;9.222;2023-04-23T06:14:53;4.53;;;2.00;;
20080;SDS011;10200;49.232;9.222;2023-04-23T06:17:19;3.73;;;2.07;;
20080;SDS011;10200;49.232;9.222;2023-04-23T06:19:44;2.37;;;2.10;;
20080;SDS011;10200;49.232;9.222;2023-04-23T06:22:12;2.57;;;2.20;;
20080;SDS011;10200;49.232;9.222;2023-04-23T06:24:37;2.13;;;1.90;;
20080;SDS011;10200;49.232;9.222;2023-04-23T06:27:03;1.80;;;1.50;;
20080;SDS011;10200;49.232;9.222;2023-04-23T06:29:30;2.00;;;1.77;;
20080;SDS011;10200;49.232;9.222;2023-04-23T06:31:56;4.17;;;1.90;;
20080;SDS011;10200;49.232;9.222;2023-04-23T06:34:25;3.10;;;2.00;;
20080;SDS011;10200;49.232;9.222;2023-04-23T06:36:50;2.30;;;1.90;;
20080;SDS011;10200;49.232;9.222;2023-04-23T06:39:16;2.30;;;2.07;;
20080;SDS011;10200;49.232;9.222;2023-04-23T06:41:42;3.10;;;2.00;;
20080;SDS011;10200;49.232;9.222;2023-04-23T06:44:08;2.90;;;1.83;;
20080;SDS011;10200;49.232;9.222;2023-04-23T06:46:36;3.43;;;2.03;;
20080;SDS011;10200;49.232;9.222;2023-04-23T06:49:02;2.10;;;1.90;;
20080;SDS011;10200;49.232;9.222;2023-04-23T06:51:27;2.80;;;1.87;;
20080;SDS011;10200;49.232;9.222;2023-04-23T06:53:53;3.47;;;2.00;;
20080;SDS011;10200;49.232;9.222;2023-04-23T06:56:19;2.17;;;1.97;;
20080;SDS011;10200;49.232;9.222;2023-04-23T06:58:45;3.43;;;1.73;;
20080;SDS011;10200;49.232;9.222;2023-04-23T07:01:11;3.40;;;1.90;;
20080;SDS011;10200;49.232;9.222;2023-04-23T07:03:37;2.33;;;2.13;;
20080;SDS011;10200;49.232;9.222;2023-04-23T07:06:03;3.03;;;1.83;;
20080;SDS011;10200;49.232;9.222;2023-04-23T07:08:30;2.63;;;1.90;;
20080;SDS011;10200;49.232;9.222;2023-04-23T07:10:58;3.03;;;1.67;;
20080;SDS011;10200;49.232;9.222;2023-04-23T07:13:28;3.43;;;1.63;;
20080;SDS011;10200;49.232;9.222;2023-04-23T07:15:54;2.03;;;1.80;;
20080;SDS011;10200;49.232;9.222;2023-04-23T07:18:20;1.80;;;1.63;;
20080;SDS011;10200;49.232;9.222;2023-04-23T07:20:45;2.27;;;1.70;;
20080;SDS011;10200;49.232;9.222;2023-04-23T07:23:11;4.33;;;2.57;;
20080;SDS011;10200;49.232;9.222;2023-04-23T07:25:37;2.33;;;1.90;;
20080;SDS011;10200;49.232;9.222;2023-04-23T07:28:03;2.10;;;1.63;;
20080;SDS011;10200;49.232;9.222;2023-04-23T07:30:29;4.07;;;2.20;;
20080;SDS011;10200;49.232;9.222;2023-04-23T07:32:55;2.30;;;1.50;;
20080;SDS011;10200;49.232;9.222;2023-04-23T07:35:21;1.70;;;1.60;;
20080;SDS011;10200;49.232;9.222;2023-04-23T07:37:47;2.73;;;1.77;;
20080;SDS011;10200;49.232;9.222;2023-04-23T07:40:21;1.60;;;1.40;;
20080;SDS011;10200;49.232;9.222;2023-04-23T07:42:47;2.30;;;1.60;;
20080;SDS011;10200;49.232;9.222;2023-04-23T07:45:14;2.75;;;1.30;;
20080;SDS011;10200;49.232;9.222;2023-04-23T07:47:39;2.97;;;1.33;;
20080;SDS011;10200;49.232;9.222;2023-04-23T07:50:06;1.50;;;1.40;;
20080;SDS011;10200;49.232;9.222;2023-04-23T07:52:33;1.30;;;1.10;;
20080;SDS011;10200;49.232;9.222;2023-04-23T07:54:58;1.13;;;1.00;;
20080;SDS011;10200;49.232;9.222;2023-04-23T07:57:24;1.50;;;1.17;;
20080;SDS011;10200;49.232;9.222;2023-04-23T07:59:49;3.97;;;1.40;;
20080;SDS011;10200;49.232;9.222;2023-04-23T08:02:16;1.52;;;1.10;;
20080;SDS011;10200;49.232;9.222;2023-04-23T08:04:47;1.80;;;1.13;;
20080;SDS011;10200;49.232;9.222;2023-04-23T08:07:13;1.95;;;1.10;;
20080;SDS011;10200;49.232;9.222;2023-04-23T08:09:38;1.27;;;1.02;;
20080;SDS011;10200;49.232;9.222;2023-04-23T08:12:04;3.15;;;1.10;;
20080;SDS011;10200;49.232;9.222;2023-04-23T08:14:33;1.10;;;1.00;;
20080;SDS011;10200;49.232;9.222;2023-04-23T08:16:58;2.47;;;1.13;;
20080;SDS011;10200;49.232;9.222;2023-04-23T08:19:24;0.77;;;0.77;;
20080;SDS011;10200;49.232;9.222;2023-04-23T08:21:50;1.67;;;1.42;;
20080;SDS011;10200;49.232;9.222;2023-04-23T08:24:16;2.22;;;1.40;;
20080;SDS011;10200;49.232;9.222;2023-04-23T08:26:42;1.02;;;1.00;;
20080;SDS011;10200;49.232;9.222;2023-04-23T08:29:07;1.17;;;1.00;;
20080;SDS011;10200;49.232;9.222;2023-04-23T08:31:33;1.67;;;1.15;;
20080;SDS011;10200;49.232;9.222;2023-04-23T08:33:59;1.80;;;1.15;;
20080;SDS011;10200;49.232;9.222;2023-04-23T08:36:25;2.38;;;1.30;;
20080;SDS011;10200;49.232;9.222;2023-04-23T08:38:51;1.98;;;1.50;;
20080;SDS011;10200;49.232;9.222;2023-04-23T08:41:18;2.60;;;1.70;;
20080;SDS011;10200;49.232;9.222;2023-04-23T08:43:50;1.63;;;1.40;;
20080;SDS011;10200;49.232;9.222;2023-04-23T08:46:32;2.55;;;1.45;;
20080;SDS011;10200;49.232;9.222;2023-04-23T08:49:01;1.80;;;1.58;;
20080;SDS011;10200;49.232;9.222;2023-04-23T08:51:27;1.63;;;1.30;;
20080;SDS011;10200;49.232;9.222;2023-04-23T08:53:55;1.83;;;1.20;;
20080;SDS011;10200;49.232;9.222;2023-04-23T08:56:23;1.42;;;1.33;;
20080;SDS011;10200;49.232;9.222;2023-04-23T08:58:52;1.30;;;1.20;;
20080;SDS011;10200;49.232;9.222;2023-04-23T09:01:18;1.35;;;1.15;;
20080;SDS011;10200;49.232;9.222;2023-04-23T09:03:43;1.80;;;1.20;;
20080;SDS011;10200;49.232;9.222;2023-04-23T09:06:09;0.90;;;0.90;;
20080;SDS011;10200;49.232;9.222;2023-04-23T09:08:36;3.25;;;1.40;;
20080;SDS011;10200;49.232;9.222;2023-04-23T09:11:02;1.30;;;1.20;;
20080;SDS011;10200;49.232;9.222;2023-04-23T09:13:29;1.10;;;1.00;;
20080;SDS011;10200;49.232;9.222;2023-04-23T09:15:56;1.40;;;1.30;;
20080;SDS011;10200;49.232;9.222;2023-04-23T09:18:22;2.28;;;1.50;;
20080;SDS011;10200;49.232;9.222;2023-04-23T09:20:47;2.13;;;1.00;;
20080;SDS011;10200;49.232;9.222;2023-04-23T09:23:14;3.15;;;1.20;;
20080;SDS011;10200;49.232;9.222;2023-04-23T09:25:40;4.78;;;1.70;;
20080;SDS011;10200;49.232;9.222;2023-04-23T09:28:07;2.72;;;1.50;;
20080;SDS011;10200;49.232;9.222;2023-04-23T09:30:44;0.80;;;0.80;;
20080;SDS011;10200;49.232;9.222;2023-04-23T09:33:12;1.20;;;1.10;;
20080;SDS011;10200;49.232;9.222;2023-04-23T09:35:40;1.25;;;1.15;;
20080;SDS011;10200;49.232;9.222;2023-04-23T09:38:07;2.42;;;0.98;;
20080;SDS011;10200;49.232;9.222;2023-04-23T09:40:34;1.20;;;0.98;;
20080;SDS011;10200;49.232;9.222;2023-04-23T09:43:02;2.88;;;1.05;;
20080;SDS011;10200;49.232;9.222;2023-04-23T09:45:28;1.40;;;1.20;;
20080;SDS011;10200;49.232;9.222;2023-04-23T09:47:55;2.15;;;1.05;;
20080;SDS011;10200;49.232;9.222;2023-04-23T09:52:59;1.40;;;1.20;;
20080;SDS011;10200;49.232;9.222;2023-04-23T09:55:29;4.20;;;2.13;;
20080;SDS011;10200;49.232;9.222;2023-04-23T09:58:21;2.42;;;1.30;;
20080;SDS011;10200;49.232;9.222;2023-04-23T10:00:49;1.15;;;0.95;;
20080;SDS011;10200;49.232;9.222;2023-04-23T10:03:14;1.65;;;1.10;;
20080;SDS011;10200;49.232;9.222;2023-04-23T10:05:50;3.53;;;1.23;;
20080;SDS011;10200;49.232;9.222;2023-04-23T10:08:19;1.77;;;1.40;;
20080;SDS011;10200;49.232;9.222;2023-04-23T10:10:46;2.65;;;1.17;;
20080;SDS011;10200;49.232;9.222;2023-04-23T10:13:12;1.30;;;1.20;;
20080;SDS011;10200;49.232;9.222;2023-04-23T10:15:38;1.55;;;1.33;;
20080;SDS011;10200;49.232;9.222;2023-04-23T10:18:03;1.45;;;1.27;;
20080;SDS011;10200;49.232;9.222;2023-04-23T10:20:30;2.53;;;1.15;;
20080;SDS011;10200;49.232;9.222;2023-04-23T10:22:58;1.10;;;1.00;;
20080;SDS011;10200;49.232;9.222;2023-04-23T10:25:25;1.27;;;1.17;;
20080;SDS011;10200;49.232;9.222;2023-04-23T10:27:52;2.33;;;1.38;;
20080;SDS011;10200;49.232;9.222;2023-04-23T10:30:20;1.25;;;1.15;;
20080;SDS011;10200;49.232;9.222;2023-04-23T10:32:47;1.77;;;1.40;;
20080;SDS011;10200;49.232;9.222;2023-04-23T10:35:13;0.82;;;0.82;;
20080;SDS011;10200;49.232;9.222;2023-04-23T10:37:39;1.83;;;1.17;;
20080;SDS011;10200;49.232;9.222;2023-04-23T10:40:09;2.22;;;1.15;;
20080;SDS011;10200;49.232;9.222;2023-04-23T10:42:38;1.00;;;0.90;;
20080;SDS011;10200;49.232;9.222;2023-04-23T10:45:18;2.28;;;1.23;;
20080;SDS011;10200;49.232;9.222;2023-04-23T10:47:45;1.20;;;1.10;;
20080;SDS011;10200;49.232;9.222;2023-04-23T10:50:16;1.08;;;0.90;;
20080;SDS011;10200;49.232;9.222;2023-04-23T10:52:43;2.55;;;0.98;;
20080;SDS011;10200;49.232;9.222;2023-04-23T10:55:15;3.03;;;1.20;;
20080;SDS011;10200;49.232;9.222;2023-04-23T11:00:29;1.15;;;0.98;;
20080;SDS011;10200;49.232;9.222;2023-04-23T11:05:51;1.02;;;0.93;;
20080;SDS011;10200;49.232;9.222;2023-04-23T11:08:18;2.63;;;1.17;;
20080;SDS011;10200;49.232;9.222;2023-04-23T11:10:54;2.78;;;1.30;;
20080;SDS011;10200;49.232;9.222;2023-04-23T11:13:22;1.45;;;1.10;;
20080;SDS011;10200;49.232;9.222;2023-04-23T11:24:31;1.50;;;1.00;;
20080;SDS011;10200;49.232;9.222;2023-04-23T11:27:13;2.70;;;1.13;;
20080;SDS011;10200;49.232;9.222;2023-04-23T11:29:41;1.15;;;1.05;;
20080;SDS011;10200;49.232;9.222;2023-04-23T11:32:11;0.82;;;0.82;;
20080;SDS011;10200;49.232;9.222;2023-04-23T11:34:39;2.72;;;1.27;;
20080;SDS011;10200;49.232;9.222;2023-04-23T11:37:12;2.03;;;1.00;;
20080;SDS011;10200;49.232;9.222;2023-04-23T11:39:39;1.33;;;1.20;;
20080;SDS011;10200;49.232;9.222;2023-04-23T11:44:39;1.35;;;1.00;;
20080;SDS011;10200;49.232;9.222;2023-04-23T11:47:06;1.08;;;0.95;;
20080;SDS011;10200;49.232;9.222;2023-04-23T11:49:35;1.73;;;1.13;;
20080;SDS011;10200;49.232;9.222;2023-04-23T11:52:02;4.90;;;1.20;;
20080;SDS011;10200;49.232;9.222;2023-04-23T11:54:27;1.23;;;0.90;;
20080;SDS011;10200;49.232;9.222;2023-04-23T11:56:53;4.38;;;1.27;;
20080;SDS011;10200;49.232;9.222;2023-04-23T11:59:20;1.52;;;1.23;;
20080;SDS011;10200;49.232;9.222;2023-04-23T12:01:53;2.50;;;1.15;;
20080;SDS011;10200;49.232;9.222;2023-04-23T12:04:22;4.03;;;1.40;;
20080;SDS011;10200;49.232;9.222;2023-04-23T12:06:53;3.63;;;0.85;;
20080;SDS011;10200;49.232;9.222;2023-04-23T12:09:21;0.75;;;0.73;;
20080;SDS011;10200;49.232;9.222;2023-04-23T12:11:48;0.93;;;0.70;;
20080;SDS011;10200;49.232;9.222;2023-04-23T12:14:18;0.90;;;0.90;;
20080;SDS011;10200;49.232;9.222;2023-04-23T12:16:52;0.88;;;0.88;;
20080;SDS011;10200;49.232;9.222;2023-04-23T12:19:25;1.17;;;0.82;;
20080;SDS011;10200;49.232;9.222;2023-04-23T12:22:01;1.85;;;1.15;;
20080;SDS011;10200;49.232;9.222;2023-04-23T12:24:47;1.48;;;0.90;;
20080;SDS011;10200;49.232;9.222;2023-04-23T12:27:17;1.48;;;1.10;;
20080;SDS011;10200;49.232;9.222;2023-04-23T12:29:44;1.20;;;0.77;;
20080;SDS011;10200;49.232;9.222;2023-04-23T12:32:14;0.73;;;0.73;;
20080;SDS011;10200;49.232;9.222;2023-04-23T12:34:50;2.35;;;1.00;;
20080;SDS011;10200;49.232;9.222;2023-04-23T12:37:27;2.00;;;0.90;;
20080;SDS011;10200;49.232;9.222;2023-04-23T12:39:55;1.75;;;0.80;;
20080;SDS011;10200;49.232;9.222;2023-04-23T12:42:23;0.80;;;0.80;;
20080;SDS011;10200;49.232;9.222;2023-04-23T12:44:50;1.40;;;0.80;;
20080;SDS011;10200;49.232;9.222;2023-04-23T12:47:15;1.13;;;0.95;;
20080;SDS011;10200;49.232;9.222;2023-04-23T12:49:43;0.95;;;0.70;;
20080;SDS011;10200;49.232;9.222;2023-04-23T12:52:10;1.42;;;0.65;;
20080;SDS011;10200;49.232;9.222;2023-04-23T12:54:36;1.65;;;0.90;;
20080;SDS011;10200;49.232;9.222;2023-04-23T12:57:04;1.05;;;0.95;;
20080;SDS011;10200;49.232;9.222;2023-04-23T12:59:31;0.75;;;0.65;;
20080;SDS011;10200;49.232;9.222;2023-04-23T13:01:57;0.55;;;0.55;;
20080;SDS011;10200;49.232;9.222;2023-04-23T13:04:27;0.52;;;0.50;;
20080;SDS011;10200;49.232;9.222;2023-04-23T13:06:57;0.80;;;0.80;;
20080;SDS011;10200;49.232;9.222;2023-04-23T13:09:23;0.90;;;0.60;;
20080;SDS011;10200;49.232;9.222;2023-04-23T13:11:50;0.80;;;0.65;;
20080;SDS011;10200;49.232;9.222;2023-04-23T13:14:16;0.90;;;0.77;;
20080;SDS011;10200;49.232;9.222;2023-04-23T13:16:41;0.80;;;0.80;;
20080;SDS011;10200;49.232;9.222;2023-04-23T13:19:07;0.50;;;0.50;;
20080;SDS011;10200;49.232;9.222;2023-04-23T13:21:34;0.70;;;0.70;;
20080;SDS011;10200;49.232;9.222;2023-04-23T13:23:59;0.57;;;0.57;;
20080;SDS011;10200;49.232;9.222;2023-04-23T13:26:26;0.95;;;0.80;;
20080;SDS011;10200;49.232;9.222;2023-04-23T13:29:00;0.60;;;0.60;;
20080;SDS011;10200;49.232;9.222;2023-04-23T13:31:26;3.13;;;0.90;;
20080;SDS011;10200;49.232;9.222;2023-04-23T13:33:54;0.60;;;0.45;;
20080;SDS011;10200;49.232;9.222;2023-04-23T13:36:20;3.25;;;1.10;;
20080;SDS011;10200;49.232;9.222;2023-04-23T13:38:48;0.77;;;0.77;;
20080;SDS011;10200;49.232;9.222;2023-04-23T13:41:16;0.43;;;0.43;;
20080;SDS011;10200;49.232;9.222;2023-04-23T13:43:42;0.80;;;0.63;;
20080;SDS011;10200;49.232;9.222;2023-04-23T13:46:08;0.93;;;0.57;;
20080;SDS011;10200;49.232;9.222;2023-04-23T13:48:33;0.60;;;0.60;;
20080;SDS011;10200;49.232;9.222;2023-04-23T13:51:00;1.45;;;0.70;;
20080;SDS011;10200;49.232;9.222;2023-04-23T13:53:27;0.57;;;0.57;;
20080;SDS011;10200;49.232;9.222;2023-04-23T13:55:53;0.70;;;0.68;;
20080;SDS011;10200;49.232;9.222;2023-04-23T13:58:20;0.65;;;0.63;;
20080;SDS011;10200;49.232;9.222;2023-04-23T14:00:46;0.45;;;0.45;;
20080;SDS011;10200;49.232;9.222;2023-04-23T14:03:12;0.73;;;0.73;;
20080;SDS011;10200;49.232;9.222;2023-04-23T14:05:37;2.13;;;0.50;;
20080;SDS011;10200;49.232;9.222;2023-04-23T14:08:03;0.88;;;0.70;;
20080;SDS011;10200;49.232;9.222;2023-04-23T14:10:29;0.50;;;0.50;;
20080;SDS011;10200;49.232;9.222;2023-04-23T14:12:55;1.05;;;0.50;;
20080;SDS011;10200;49.232;9.222;2023-04-23T14:15:21;0.60;;;0.60;;
20080;SDS011;10200;49.232;9.222;2023-04-23T14:17:47;1.33;;;0.43;;
20080;SDS011;10200;49.232;9.222;2023-04-23T14:20:13;3.40;;;0.80;;
20080;SDS011;10200;49.232;9.222;2023-04-23T14:22:47;0.50;;;0.50;;
20080;SDS011;10200;49.232;9.222;2023-04-23T14:25:15;1.20;;;0.70;;
20080;SDS011;10200;49.232;9.222;2023-04-23T14:27:54;1.40;;;0.60;;
20080;SDS011;10200;49.232;9.222;2023-04-23T14:30:21;0.50;;;0.50;;
20080;SDS011;10200;49.232;9.222;2023-04-23T14:32:50;1.98;;;0.90;;
20080;SDS011;10200;49.232;9.222;2023-04-23T14:35:17;0.60;;;0.60;;
20080;SDS011;10200;49.232;9.222;2023-04-23T14:37:43;1.90;;;0.63;;
20080;SDS011;10200;49.232;9.222;2023-04-23T14:40:10;0.50;;;0.50;;
20080;SDS011;10200;49.232;9.222;2023-04-23T14:42:46;0.75;;;0.70;;
20080;SDS011;10200;49.232;9.222;2023-04-23T14:45:13;1.48;;;1.10;;
20080;SDS011;10200;49.232;9.222;2023-04-23T14:47:40;1.00;;;0.90;;
20080;SDS011;10200;49.232;9.222;2023-04-23T14:50:11;1.65;;;0.60;;
20080;SDS011;10200;49.232;9.222;2023-04-23T14:52:40;0.60;;;0.60;;
20080;SDS011;10200;49.232;9.222;2023-04-23T14:55:09;3.13;;;0.65;;
20080;SDS011;10200;49.232;9.222;2023-04-23T14:57:35;8.15;;;4.50;;
20080;SDS011;10200;49.232;9.222;2023-04-23T15:00:01;5.93;;;3.03;;
20080;SDS011;10200;49.232;9.222;2023-04-23T15:02:26;1.30;;;1.17;;
20080;SDS011;10200;49.232;9.222;2023-04-23T15:04:53;0.77;;;0.70;;
20080;SDS011;10200;49.232;9.222;2023-04-23T15:07:19;1.73;;;1.10;;